Time;durP1;ratioP1;P1;durP2;ratioP2;P2;SDS_P1;SDS_P2;PMS_P1;PMS_P2;Temp;Humidity;BMP_temperature;BMP_pressure;BME280_temperature;BME280_humidity;BME280_pressure;Samples;Min_cycle;Max_cycle;Signal;HPM_P1;HPM_P2
2023/12/02 00:00:50;;;;;;;22.63;16.13;;;;;;;;;;5069444;28;20603;-69
2023/12/02 00:03:16;;;;;;;21.85;15.57;;;;;;;;;;5069826;28;20281;-70
2023/12/02 00:05:44;;;;;;;21.67;15.95;;;;;;;;;;5069551;28;20221;-70
2023/12/02 00:08:10;;;;;;;21.95;15.48;;;;;;;;;;5069422;28;20204;-70
2023/12/02 00:10:36;;;;;;;20.77;15.48;;;;;;;;;;5069631;28;20281;-70
2023/12/02 00:13:02;;;;;;;22.27;15.73;;;;;;;;;;5069808;28;20250;-70
2023/12/02 00:15:29;;;;;;;19.75;15.48;;;;;;;;;;5069470;28;20231;-70
2023/12/02 00:17:55;;;;;;;24.08;16.08;;;;;;;;;;5069458;28;20261;-70
2023/12/02 00:20:21;;;;;;;22.70;15.90;;;;;;;;;;5069270;28;20201;-70
2023/12/02 00:22:49;;;;;;;20.50;15.20;;;;;;;;;;5069448;28;20262;-70
2023/12/02 00:25:17;;;;;;;21.05;15.35;;;;;;;;;;5069180;28;20621;-70
2023/12/02 00:27:43;;;;;;;21.17;15.65;;;;;;;;;;5069385;28;20204;-70
2023/12/02 00:30:10;;;;;;;21.10;15.35;;;;;;;;;;5069241;28;20236;-70
2023/12/02 00:32:36;;;;;;;20.17;15.60;;;;;;;;;;5069059;28;20225;-70
2023/12/02 00:35:03;;;;;;;22.77;16.05;;;;;;;;;;5069118;28;20567;-70
2023/12/02 00:37:30;;;;;;;20.88;15.52;;;;;;;;;;5069170;28;20685;-70
2023/12/02 00:39:57;;;;;;;21.08;15.32;;;;;;;;;;5069415;28;20668;-70
2023/12/02 00:42:24;;;;;;;22.23;15.63;;;;;;;;;;5069365;28;20192;-70
2023/12/02 00:44:50;;;;;;;23.50;16.30;;;;;;;;;;5069338;28;20270;-70
2023/12/02 00:47:16;;;;;;;22.02;15.55;;;;;;;;;;5069034;28;20258;-70
2023/12/02 00:49:42;;;;;;;20.98;15.82;;;;;;;;;;5069145;28;20653;-70
2023/12/02 00:52:09;;;;;;;23.95;16.73;;;;;;;;;;5069000;28;20888;-70
2023/12/02 00:54:36;;;;;;;21.27;15.48;;;;;;;;;;5069230;28;20274;-70
2023/12/02 00:57:04;;;;;;;22.75;16.17;;;;;;;;;;5069196;28;20246;-70
2023/12/02 00:59:30;;;;;;;21.13;15.02;;;;;;;;;;5069311;28;20235;-70
2023/12/02 01:01:56;;;;;;;20.42;15.38;;;;;;;;;;5069161;28;20258;-71
2023/12/02 01:04:22;;;;;;;21.55;16.25;;;;;;;;;;5072485;28;20272;-70
2023/12/02 01:06:49;;;;;;;23.75;16.10;;;;;;;;;;5072776;28;20230;-70
2023/12/02 01:09:15;;;;;;;22.83;16.25;;;;;;;;;;5072299;28;20216;-70
2023/12/02 01:11:41;;;;;;;20.00;15.45;;;;;;;;;;5072487;28;20224;-70
2023/12/02 01:14:09;;;;;;;24.10;16.00;;;;;;;;;;5072581;28;20572;-71
2023/12/02 01:16:35;;;;;;;21.35;15.80;;;;;;;;;;5072403;28;20225;-71
2023/12/02 01:19:01;;;;;;;22.48;16.48;;;;;;;;;;5072282;28;20231;-70
2023/12/02 01:21:28;;;;;;;21.75;15.63;;;;;;;;;;5072366;28;20204;-71
2023/12/02 01:23:54;;;;;;;22.33;15.88;;;;;;;;;;5072315;28;20262;-70
2023/12/02 01:26:20;;;;;;;23.05;16.58;;;;;;;;;;5072412;28;20228;-69
2023/12/02 01:28:46;;;;;;;23.60;16.20;;;;;;;;;;5071947;28;20246;-69
2023/12/02 01:31:14;;;;;;;21.75;15.25;;;;;;;;;;5071655;28;20570;-70
2023/12/02 01:33:40;;;;;;;26.27;17.50;;;;;;;;;;5071971;28;20216;-70
2023/12/02 01:36:10;;;;;;;25.05;17.10;;;;;;;;;;5071942;28;20227;-70
2023/12/02 01:38:36;;;;;;;24.80;17.80;;;;;;;;;;5072174;28;20918;-70
2023/12/02 01:41:02;;;;;;;26.42;17.45;;;;;;;;;;5072194;28;20635;-70
2023/12/02 01:43:29;;;;;;;24.67;17.08;;;;;;;;;;5071980;28;20207;-70
2023/12/02 01:45:55;;;;;;;25.02;17.30;;;;;;;;;;5071713;28;20232;-70
2023/12/02 01:48:24;;;;;;;25.48;17.30;;;;;;;;;;5071917;28;20212;-70
2023/12/02 01:50:50;;;;;;;29.77;18.80;;;;;;;;;;5071585;28;20551;-70
2023/12/02 01:53:17;;;;;;;29.60;18.52;;;;;;;;;;5071906;28;20235;-71
2023/12/02 01:55:44;;;;;;;27.98;19.00;;;;;;;;;;5071567;28;20234;-70
2023/12/02 01:58:10;;;;;;;28.55;18.95;;;;;;;;;;5071583;28;20277;-70
2023/12/02 02:00:36;;;;;;;30.00;19.48;;;;;;;;;;5071519;28;20208;-70
2023/12/02 02:03:03;;;;;;;28.48;18.67;;;;;;;;;;5071466;28;20200;-70
2023/12/02 02:05:30;;;;;;;30.23;18.92;;;;;;;;;;5071607;28;20605;-70
2023/12/02 02:07:56;;;;;;;31.13;19.20;;;;;;;;;;5071436;28;20307;-70
2023/12/02 02:10:23;;;;;;;27.05;18.70;;;;;;;;;;5071135;28;20668;-70
2023/12/02 02:12:49;;;;;;;29.85;19.23;;;;;;;;;;5071292;28;20281;-70
2023/12/02 02:15:15;;;;;;;31.02;19.58;;;;;;;;;;5069884;28;20578;-70
2023/12/02 02:17:42;;;;;;;30.33;19.40;;;;;;;;;;5071459;28;20246;-70
2023/12/02 02:20:09;;;;;;;29.90;19.67;;;;;;;;;;5071378;28;20215;-71
2023/12/02 02:22:37;;;;;;;28.25;19.00;;;;;;;;;;5071421;28;20241;-71
2023/12/02 02:25:03;;;;;;;30.33;19.42;;;;;;;;;;5071275;28;20216;-70
2023/12/02 02:27:29;;;;;;;31.17;20.05;;;;;;;;;;5071555;28;20200;-70
2023/12/02 02:29:56;;;;;;;29.85;19.40;;;;;;;;;;5071718;28;20208;-70
2023/12/02 02:32:22;;;;;;;31.70;19.58;;;;;;;;;;5071832;28;20273;-71
2023/12/02 02:34:48;;;;;;;31.35;20.20;;;;;;;;;;5071633;28;20220;-71
2023/12/02 02:37:14;;;;;;;27.40;18.42;;;;;;;;;;5070597;28;20261;-71
2023/12/02 02:39:42;;;;;;;31.38;19.83;;;;;;;;;;5070601;28;20208;-71
2023/12/02 02:42:09;;;;;;;36.53;20.40;;;;;;;;;;5070473;28;20196;-70
2023/12/02 02:44:35;;;;;;;30.85;20.00;;;;;;;;;;5070469;28;20311;-70
2023/12/02 02:47:02;;;;;;;29.60;19.52;;;;;;;;;;5070625;28;20208;-70
2023/12/02 02:49:28;;;;;;;32.08;21.45;;;;;;;;;;5070285;28;20208;-70
2023/12/02 02:51:54;;;;;;;31.50;20.65;;;;;;;;;;5070174;28;20211;-70
2023/12/02 02:54:21;;;;;;;31.15;20.23;;;;;;;;;;5070418;28;20208;-70
2023/12/02 02:56:48;;;;;;;29.75;19.33;;;;;;;;;;5070589;28;20211;-70
2023/12/02 02:59:16;;;;;;;31.40;20.80;;;;;;;;;;5070637;28;20204;-70
2023/12/02 03:01:44;;;;;;;31.40;20.08;;;;;;;;;;5070882;28;20230;-70
2023/12/02 03:04:10;;;;;;;29.98;19.90;;;;;;;;;;5071123;28;20258;-70
2023/12/02 03:06:36;;;;;;;30.98;19.58;;;;;;;;;;5069983;28;20289;-70
2023/12/02 03:09:02;;;;;;;29.88;19.52;;;;;;;;;;5069570;28;20689;-70
2023/12/02 03:11:29;;;;;;;33.53;20.15;;;;;;;;;;5069943;28;20200;-70
2023/12/02 03:13:56;;;;;;;31.65;19.30;;;;;;;;;;5069663;28;20316;-69
2023/12/02 03:16:22;;;;;;;31.90;19.60;;;;;;;;;;5069178;28;20599;-70
2023/12/02 03:18:49;;;;;;;28.55;19.65;;;;;;;;;;5069954;28;20196;-70
2023/12/02 03:21:15;;;;;;;31.40;20.05;;;;;;;;;;5069473;28;20204;-70
2023/12/02 03:23:42;;;;;;;28.45;18.88;;;;;;;;;;5069507;28;20282;-69
2023/12/02 03:26:08;;;;;;;31.98;20.45;;;;;;;;;;5068799;28;20590;-69
2023/12/02 03:28:34;;;;;;;28.17;19.55;;;;;;;;;;5069259;28;20208;-69
2023/12/02 03:31:02;;;;;;;29.92;19.45;;;;;;;;;;5068986;28;20212;-70
2023/12/02 03:33:29;;;;;;;29.15;18.30;;;;;;;;;;5068894;28;20220;-70
2023/12/02 03:35:55;;;;;;;28.10;19.02;;;;;;;;;;5068590;28;20273;-69
2023/12/02 03:38:21;;;;;;;32.75;20.30;;;;;;;;;;5068812;28;20249;-69
2023/12/02 03:40:48;;;;;;;28.92;18.13;;;;;;;;;;5069039;28;20219;-70
2023/12/02 03:43:14;;;;;;;27.88;19.00;;;;;;;;;;5069034;28;20201;-69
2023/12/02 03:45:40;;;;;;;28.65;18.52;;;;;;;;;;5068907;28;20224;-70
2023/12/02 03:48:08;;;;;;;29.55;19.80;;;;;;;;;;5068734;28;20565;-70
2023/12/02 03:50:34;;;;;;;30.15;18.73;;;;;;;;;;5068742;28;20282;-70
2023/12/02 03:53:00;;;;;;;29.33;18.83;;;;;;;;;;5068984;28;20322;-70
2023/12/02 03:55:27;;;;;;;28.25;19.10;;;;;;;;;;5068831;28;20217;-70
2023/12/02 03:57:53;;;;;;;28.50;19.40;;;;;;;;;;5068425;28;20204;-70
2023/12/02 04:00:20;;;;;;;26.88;18.58;;;;;;;;;;5068759;28;20200;-70
2023/12/02 04:02:46;;;;;;;28.38;19.08;;;;;;;;;;5069236;28;20242;-70
2023/12/02 04:05:14;;;;;;;29.48;18.42;;;;;;;;;;5068852;28;20735;-70
2023/12/02 04:07:40;;;;;;;27.00;18.02;;;;;;;;;;5068619;28;20269;-70
2023/12/02 04:10:07;;;;;;;24.73;17.60;;;;;;;;;;5068743;28;20211;-70
2023/12/02 04:12:34;;;;;;;26.33;17.40;;;;;;;;;;5068663;28;20197;-71
2023/12/02 04:15:00;;;;;;;23.42;16.23;;;;;;;;;;5068976;28;20327;-71
2023/12/02 04:17:27;;;;;;;26.55;16.95;;;;;;;;;;5068968;28;20653;-71
2023/12/02 04:19:53;;;;;;;23.13;15.95;;;;;;;;;;5069082;28;20224;-71
2023/12/02 04:22:20;;;;;;;23.58;16.65;;;;;;;;;;5068665;28;20279;-71
2023/12/02 04:24:47;;;;;;;26.13;17.42;;;;;;;;;;5068652;28;20224;-71
2023/12/02 04:27:13;;;;;;;23.77;16.55;;;;;;;;;;5068734;28;20200;-70
2023/12/02 04:29:41;;;;;;;23.95;16.13;;;;;;;;;;5068609;28;20437;-70
2023/12/02 04:32:08;;;;;;;21.77;16.60;;;;;;;;;;5068724;28;20234;-70
2023/12/02 04:34:34;;;;;;;24.40;16.98;;;;;;;;;;5068491;28;20232;-70
2023/12/02 04:37:01;;;;;;;23.98;16.35;;;;;;;;;;5068716;28;20204;-71
2023/12/02 04:39:28;;;;;;;24.83;16.25;;;;;;;;;;5072381;28;20614;-70
2023/12/02 04:41:55;;;;;;;24.63;16.52;;;;;;;;;;5072399;28;20292;-70
2023/12/02 04:44:21;;;;;;;23.38;16.42;;;;;;;;;;5072164;28;20231;-70
2023/12/02 04:46:47;;;;;;;24.00;16.48;;;;;;;;;;5072391;28;20250;-70
2023/12/02 04:49:14;;;;;;;23.42;16.42;;;;;;;;;;5072259;28;20204;-70
2023/12/02 04:51:40;;;;;;;23.58;15.95;;;;;;;;;;5072619;28;20303;-70
2023/12/02 04:54:06;;;;;;;23.60;16.30;;;;;;;;;;5072349;28;20273;-70
2023/12/02 04:56:34;;;;;;;20.85;15.77;;;;;;;;;;5072074;28;20239;-70
2023/12/02 04:59:00;;;;;;;23.42;15.68;;;;;;;;;;5072264;28;20209;-70
2023/12/02 05:01:26;;;;;;;22.77;16.08;;;;;;;;;;5072124;28;20237;-70
2023/12/02 05:03:53;;;;;;;18.02;13.93;;;;;;;;;;5071904;28;20241;-70
2023/12/02 05:06:19;;;;;;;19.58;13.82;;;;;;;;;;5071541;28;20224;-70
2023/12/02 05:08:45;;;;;;;21.30;13.68;;;;;;;;;;5071764;28;20246;-70
2023/12/02 05:11:17;;;;;;;18.17;13.63;;;;;;;;;;5071414;28;20201;-70
2023/12/02 05:13:44;;;;;;;18.13;13.27;;;;;;;;;;5071523;28;20312;-70
2023/12/02 05:16:11;;;;;;;17.50;12.90;;;;;;;;;;5071618;28;20719;-70
2023/12/02 05:18:39;;;;;;;16.05;12.10;;;;;;;;;;5071685;28;20362;-70
2023/12/02 05:21:06;;;;;;;17.60;13.15;;;;;;;;;;5071275;28;20259;-70
2023/12/02 05:23:32;;;;;;;16.15;12.48;;;;;;;;;;5071465;28;20208;-70
2023/12/02 05:25:58;;;;;;;18.98;13.27;;;;;;;;;;5071237;28;20228;-70
2023/12/02 05:28:24;;;;;;;16.77;12.75;;;;;;;;;;5071116;28;20349;-70
2023/12/02 05:30:52;;;;;;;17.42;12.98;;;;;;;;;;5071130;28;20277;-70
2023/12/02 05:33:18;;;;;;;19.08;13.90;;;;;;;;;;5071406;28;20213;-70
2023/12/02 05:35:45;;;;;;;17.30;12.95;;;;;;;;;;5071078;28;20216;-70
2023/12/02 05:38:11;;;;;;;19.58;14.27;;;;;;;;;;5071362;28;20204;-70
2023/12/02 05:40:37;;;;;;;16.63;12.40;;;;;;;;;;5070852;28;20209;-70
2023/12/02 05:43:03;;;;;;;15.93;12.40;;;;;;;;;;5070970;28;20561;-70
2023/12/02 05:45:30;;;;;;;16.08;11.68;;;;;;;;;;5071232;28;20278;-70
2023/12/02 05:47:57;;;;;;;14.90;12.27;;;;;;;;;;5070547;28;20298;-70
2023/12/02 05:50:23;;;;;;;16.60;12.70;;;;;;;;;;5070721;28;20652;-70
2023/12/02 05:52:50;;;;;;;16.67;11.93;;;;;;;;;;5070939;28;20212;-69
2023/12/02 05:55:16;;;;;;;15.52;11.50;;;;;;;;;;5070655;28;20293;-70
2023/12/02 05:57:43;;;;;;;14.85;11.38;;;;;;;;;;5070490;28;20232;-70
2023/12/02 06:00:09;;;;;;;13.35;11.35;;;;;;;;;;5070577;28;20258;-70
2023/12/02 06:02:36;;;;;;;15.40;12.07;;;;;;;;;;5070961;28;20200;-70
2023/12/02 06:05:03;;;;;;;14.68;11.82;;;;;;;;;;5070963;28;20221;-71
2023/12/02 06:07:30;;;;;;;15.02;11.50;;;;;;;;;;5070670;28;20672;-70
2023/12/02 06:09:56;;;;;;;16.50;12.40;;;;;;;;;;5070705;28;20197;-70
2023/12/02 06:12:22;;;;;;;15.05;12.13;;;;;;;;;;5071072;28;20207;-70
2023/12/02 06:14:49;;;;;;;15.25;11.48;;;;;;;;;;5070842;28;20595;-70
2023/12/02 06:17:15;;;;;;;17.35;12.98;;;;;;;;;;5071543;28;20247;-70
2023/12/02 06:19:41;;;;;;;17.27;12.95;;;;;;;;;;5072359;28;20278;-70
2023/12/02 06:22:09;;;;;;;16.75;12.23;;;;;;;;;;5071686;28;20270;-70
2023/12/02 06:24:35;;;;;;;16.67;12.68;;;;;;;;;;5070742;28;20717;-70
2023/12/02 06:27:01;;;;;;;18.75;12.32;;;;;;;;;;5069957;28;20680;-71
2023/12/02 06:29:28;;;;;;;14.25;11.85;;;;;;;;;;5069881;28;20208;-71
2023/12/02 06:31:54;;;;;;;13.82;11.77;;;;;;;;;;5069879;28;20200;-71
2023/12/02 06:34:20;;;;;;;17.08;12.55;;;;;;;;;;5075126;28;20310;-60
2023/12/02 06:36:47;;;;;;;15.82;12.43;;;;;;;;;;5077187;28;20200;-60
2023/12/02 06:39:15;;;;;;;14.45;11.80;;;;;;;;;;5076229;28;20207;-60
2023/12/02 06:41:41;;;;;;;16.90;12.25;;;;;;;;;;5076169;28;20227;-60
2023/12/02 06:44:08;;;;;;;13.30;11.43;;;;;;;;;;5076914;28;20203;-60
2023/12/02 06:46:34;;;;;;;15.38;12.52;;;;;;;;;;5076301;28;20224;-59
2023/12/02 06:49:00;;;;;;;14.75;11.30;;;;;;;;;;5076413;28;20201;-60
2023/12/02 06:51:28;;;;;;;15.15;11.40;;;;;;;;;;5077030;28;20235;-59
2023/12/02 06:53:54;;;;;;;15.38;11.88;;;;;;;;;;5076784;28;20255;-60
2023/12/02 06:56:23;;;;;;;13.82;11.65;;;;;;;;;;5076578;28;20326;-60
2023/12/02 06:58:50;;;;;;;13.05;10.75;;;;;;;;;;5076321;28;20197;-59
2023/12/02 07:01:22;;;;;;;14.77;11.90;;;;;;;;;;5075231;28;20232;-59
2023/12/02 07:03:48;;;;;;;16.45;11.95;;;;;;;;;;5076349;28;20205;-60
2023/12/02 07:06:15;;;;;;;15.50;11.60;;;;;;;;;;5076282;28;20216;-60
2023/12/02 07:08:41;;;;;;;16.42;12.25;;;;;;;;;;5075342;28;20633;-59
2023/12/02 07:11:08;;;;;;;14.77;11.50;;;;;;;;;;5075708;28;20611;-59
2023/12/02 07:13:36;;;;;;;12.68;10.77;;;;;;;;;;5075955;28;20285;-60
2023/12/02 07:16:02;;;;;;;14.02;10.73;;;;;;;;;;5075976;28;20220;-60
2023/12/02 07:18:28;;;;;;;13.10;10.93;;;;;;;;;;5075837;28;20266;-59
2023/12/02 07:20:54;;;;;;;16.38;11.75;;;;;;;;;;5075410;28;20660;-59
2023/12/02 07:23:20;;;;;;;12.55;11.00;;;;;;;;;;5076684;28;20649;-60
2023/12/02 07:25:47;;;;;;;14.05;11.20;;;;;;;;;;5076018;28;20723;-60
2023/12/02 07:28:13;;;;;;;12.65;11.00;;;;;;;;;;5076206;28;20212;-60
2023/12/02 07:30:40;;;;;;;14.77;11.68;;;;;;;;;;5075804;28;20254;-59
2023/12/02 07:33:07;;;;;;;15.80;13.07;;;;;;;;;;5075987;28;20537;-59
2023/12/02 07:35:33;;;;;;;17.20;12.32;;;;;;;;;;5075845;28;20231;-59
2023/12/02 07:37:59;;;;;;;15.50;12.65;;;;;;;;;;5076335;28;20298;-59
2023/12/02 07:40:25;;;;;;;16.02;12.25;;;;;;;;;;5076824;28;20219;-60
2023/12/02 07:42:52;;;;;;;18.58;12.45;;;;;;;;;;5078375;28;20204;-60
2023/12/02 07:45:18;;;;;;;15.20;12.27;;;;;;;;;;5077091;28;20238;-59
2023/12/02 07:47:46;;;;;;;16.35;12.82;;;;;;;;;;5077382;28;20204;-59
2023/12/02 07:50:12;;;;;;;17.13;12.20;;;;;;;;;;5077179;28;20200;-60
2023/12/02 07:52:38;;;;;;;16.27;12.65;;;;;;;;;;5076968;28;20227;-59
2023/12/02 07:55:05;;;;;;;16.40;12.50;;;;;;;;;;5076407;28;20220;-59
2023/12/02 07:57:31;;;;;;;13.93;10.95;;;;;;;;;;5076910;28;20296;-59
2023/12/02 07:59:57;;;;;;;15.32;11.68;;;;;;;;;;5079547;28;20264;-59
2023/12/02 08:02:24;;;;;;;15.98;11.18;;;;;;;;;;5080067;28;20200;-59
2023/12/02 08:04:51;;;;;;;17.65;12.00;;;;;;;;;;5068240;28;20589;-62
2023/12/02 08:07:18;;;;;;;19.20;13.27;;;;;;;;;;5067699;28;20212;-60
2023/12/02 08:09:44;;;;;;;18.90;13.43;;;;;;;;;;5059829;28;20200;-61
2023/12/02 08:12:11;;;;;;;21.08;12.52;;;;;;;;;;5062827;28;20605;-61
2023/12/02 08:14:37;;;;;;;19.42;13.20;;;;;;;;;;5067136;28;20263;-62
2023/12/02 08:17:04;;;;;;;19.00;13.52;;;;;;;;;;5077401;28;20196;-61
2023/12/02 08:19:30;;;;;;;20.15;13.35;;;;;;;;;;5079680;28;20207;-59
2023/12/02 08:21:57;;;;;;;19.58;12.98;;;;;;;;;;5077006;28;20211;-58
2023/12/02 08:24:24;;;;;;;15.60;12.50;;;;;;;;;;5076489;28;20193;-59
2023/12/02 08:26:50;;;;;;;19.65;13.77;;;;;;;;;;5075476;28;20196;-59
2023/12/02 08:29:16;;;;;;;16.65;12.32;;;;;;;;;;5074722;28;20212;-57
2023/12/02 08:31:42;;;;;;;17.40;12.38;;;;;;;;;;5075583;28;20200;-58
2023/12/02 08:34:08;;;;;;;16.75;12.40;;;;;;;;;;5074831;28;20233;-59
2023/12/02 08:36:35;;;;;;;20.85;13.90;;;;;;;;;;5075229;28;20262;-57
2023/12/02 08:39:04;;;;;;;18.88;12.50;;;;;;;;;;5074745;28;20208;-60
2023/12/02 08:41:30;;;;;;;19.73;14.02;;;;;;;;;;5074399;28;20667;-59
2023/12/02 08:43:57;;;;;;;18.98;13.88;;;;;;;;;;5074923;28;20270;-59
2023/12/02 08:46:23;;;;;;;21.38;14.10;;;;;;;;;;5075535;28;20231;-58
2023/12/02 08:48:49;;;;;;;19.23;13.00;;;;;;;;;;5074424;28;20208;-59
2023/12/02 08:51:15;;;;;;;18.20;13.10;;;;;;;;;;5074878;28;20200;-59
2023/12/02 08:53:42;;;;;;;20.15;12.85;;;;;;;;;;5074134;28;20204;-60
2023/12/02 08:56:10;;;;;;;17.63;12.60;;;;;;;;;;5073766;28;20235;-59
2023/12/02 08:58:36;;;;;;;16.52;11.77;;;;;;;;;;5074117;28;20200;-60
2023/12/02 09:01:02;;;;;;;15.27;12.00;;;;;;;;;;5073911;28;20201;-60
2023/12/02 09:03:29;;;;;;;16.33;12.48;;;;;;;;;;5073799;28;20234;-59
2023/12/02 09:05:56;;;;;;;18.42;12.60;;;;;;;;;;5075667;28;20231;-59
2023/12/02 09:08:22;;;;;;;18.02;12.35;;;;;;;;;;5075632;28;20209;-59
2023/12/02 09:10:49;;;;;;;17.85;12.80;;;;;;;;;;5075202;28;20258;-59
2023/12/02 09:13:35;;;;;;;17.35;12.02;;;;;;;;;;5075251;28;20204;-60
2023/12/02 09:16:01;;;;;;;17.05;12.32;;;;;;;;;;5075915;28;20228;-59
2023/12/02 09:18:29;;;;;;;15.98;11.32;;;;;;;;;;5075949;28;20200;-60
2023/12/02 09:20:55;;;;;;;18.15;12.10;;;;;;;;;;5074617;28;20235;-58
2023/12/02 09:23:22;;;;;;;15.95;11.55;;;;;;;;;;5074501;28;20646;-60
2023/12/02 09:25:50;;;;;;;15.52;11.82;;;;;;;;;;5075396;28;20634;-58
2023/12/02 09:28:17;;;;;;;17.08;12.55;;;;;;;;;;5076124;28;20562;-59
2023/12/02 09:31:01;;;;;;;18.60;12.95;;;;;;;;;;5076587;28;20240;-59
2023/12/02 09:33:28;;;;;;;21.38;13.18;;;;;;;;;;5076554;28;20204;-61
2023/12/02 09:35:56;;;;;;;20.70;12.82;;;;;;;;;;5075897;28;20225;-61
2023/12/02 09:38:22;;;;;;;21.15;14.32;;;;;;;;;;5075546;28;20294;-60
2023/12/02 09:41:00;;;;;;;21.35;12.73;;;;;;;;;;5075306;28;20263;-59
2023/12/02 09:43:27;;;;;;;20.83;13.93;;;;;;;;;;5077066;28;20663;-59
2023/12/02 09:46:02;;;;;;;16.85;12.98;;;;;;;;;;5077277;28;20213;-60
2023/12/02 09:48:31;;;;;;;17.25;11.27;;;;;;;;;;5076916;28;20220;-59
2023/12/02 09:51:03;;;;;;;19.23;14.90;;;;;;;;;;5077096;28;20261;-60
2023/12/02 09:53:36;;;;;;;18.83;13.27;;;;;;;;;;5076977;28;20206;-59
2023/12/02 09:56:08;;;;;;;22.95;14.23;;;;;;;;;;5078173;28;20251;-61
2023/12/02 09:58:38;;;;;;;21.38;12.48;;;;;;;;;;5076259;28;20208;-59
2023/12/02 10:01:08;;;;;;;17.52;12.98;;;;;;;;;;5075942;28;20236;-60
2023/12/02 10:03:43;;;;;;;18.25;13.25;;;;;;;;;;5076067;28;20200;-60
2023/12/02 10:06:15;;;;;;;18.15;13.15;;;;;;;;;;5076087;28;20634;-59
2023/12/02 10:08:48;;;;;;;17.55;12.60;;;;;;;;;;5074677;28;20200;-59
2023/12/02 10:11:16;;;;;;;20.42;13.30;;;;;;;;;;5074501;28;20240;-59
2023/12/02 10:13:45;;;;;;;16.63;12.57;;;;;;;;;;5074870;28;20209;-59
2023/12/02 10:16:14;;;;;;;18.33;12.60;;;;;;;;;;5074943;28;20315;-59
2023/12/02 10:18:45;;;;;;;16.23;12.30;;;;;;;;;;5074811;28;20239;-61
2023/12/02 10:21:12;;;;;;;18.42;13.15;;;;;;;;;;5074325;28;20661;-60
2023/12/02 10:23:46;;;;;;;16.80;12.13;;;;;;;;;;5074997;28;20200;-59
2023/12/02 10:26:15;;;;;;;15.27;11.82;;;;;;;;;;5074188;28;20293;-59
2023/12/02 10:28:47;;;;;;;15.93;11.63;;;;;;;;;;5073962;28;20270;-58
2023/12/02 10:31:16;;;;;;;15.60;11.07;;;;;;;;;;5074891;28;20211;-59
2023/12/02 10:33:46;;;;;;;16.88;12.52;;;;;;;;;;5074869;28;20216;-59
2023/12/02 10:36:12;;;;;;;18.27;12.23;;;;;;;;;;5072870;28;20604;-59
2023/12/02 10:38:46;;;;;;;16.98;11.80;;;;;;;;;;5074278;28;20196;-59
2023/12/02 10:41:13;;;;;;;15.23;12.20;;;;;;;;;;5074883;28;20657;-59
2023/12/02 10:43:42;;;;;;;19.33;12.43;;;;;;;;;;5074087;28;20301;-59
2023/12/02 10:46:08;;;;;;;19.05;12.77;;;;;;;;;;5074041;28;20225;-59
2023/12/02 10:48:35;;;;;;;18.17;12.75;;;;;;;;;;5073824;28;20684;-59
2023/12/02 10:51:03;;;;;;;18.40;12.30;;;;;;;;;;5074139;28;20205;-60
2023/12/02 10:53:30;;;;;;;16.55;11.95;;;;;;;;;;5073810;28;20247;-59
2023/12/02 10:56:00;;;;;;;15.32;12.18;;;;;;;;;;5072970;28;20220;-59
2023/12/02 10:58:27;;;;;;;15.93;11.80;;;;;;;;;;5073605;28;20208;-59
2023/12/02 11:00:56;;;;;;;14.57;11.88;;;;;;;;;;5073671;28;20204;-59
2023/12/02 11:03:26;;;;;;;15.95;11.80;;;;;;;;;;5073307;28;20308;-59
2023/12/02 11:05:57;;;;;;;17.05;11.80;;;;;;;;;;5072830;28;20221;-59
2023/12/02 11:08:33;;;;;;;18.10;13.00;;;;;;;;;;5073050;28;20606;-59
2023/12/02 11:10:59;;;;;;;17.33;12.05;;;;;;;;;;5073163;28;20184;-58
2023/12/02 11:13:26;;;;;;;15.80;12.10;;;;;;;;;;5073368;28;20257;-59
2023/12/02 11:16:08;;;;;;;18.40;13.45;;;;;;;;;;5073087;28;20711;-61
2023/12/02 11:18:40;;;;;;;16.75;12.63;;;;;;;;;;5072737;28;20257;-57
2023/12/02 11:21:08;;;;;;;17.65;12.70;;;;;;;;;;5071928;28;20330;-59
2023/12/02 11:23:41;;;;;;;19.20;13.38;;;;;;;;;;5072841;28;20204;-59
2023/12/02 11:26:17;;;;;;;17.55;12.07;;;;;;;;;;5071865;28;20216;-59
2023/12/02 11:28:49;;;;;;;16.35;11.40;;;;;;;;;;5071836;28;20212;-59
2023/12/02 11:31:22;;;;;;;15.65;11.45;;;;;;;;;;5072092;28;20230;-59
2023/12/02 11:33:55;;;;;;;14.20;11.10;;;;;;;;;;5072373;28;20660;-59
2023/12/02 11:36:28;;;;;;;16.27;11.20;;;;;;;;;;5072279;28;20673;-59
2023/12/02 11:39:03;;;;;;;17.17;12.25;;;;;;;;;;5071964;28;20200;-60
2023/12/02 11:41:32;;;;;;;15.95;11.20;;;;;;;;;;5072206;28;20311;-58
2023/12/02 11:44:07;;;;;;;16.77;11.43;;;;;;;;;;5072139;28;20215;-59
2023/12/02 11:46:42;;;;;;;15.20;11.35;;;;;;;;;;5072579;28;20224;-60
2023/12/02 11:49:15;;;;;;;16.17;11.68;;;;;;;;;;5072346;28;20684;-60
2023/12/02 11:51:46;;;;;;;17.20;12.27;;;;;;;;;;5072367;28;20204;-60
2023/12/02 11:54:18;;;;;;;16.92;11.88;;;;;;;;;;5072610;28;20282;-59
2023/12/02 11:56:48;;;;;;;13.30;10.77;;;;;;;;;;5072362;28;20216;-60
2023/12/02 11:59:15;;;;;;;16.45;11.77;;;;;;;;;;5072097;28;20262;-60
2023/12/02 12:01:49;;;;;;;16.35;11.50;;;;;;;;;;5072217;28;20197;-60
2023/12/02 12:04:46;;;;;;;13.38;10.68;;;;;;;;;;5071933;28;20204;-59
2023/12/02 12:07:20;;;;;;;14.07;11.13;;;;;;;;;;5072479;28;20291;-60
2023/12/02 12:09:52;;;;;;;16.00;12.23;;;;;;;;;;5071522;28;20216;-59
2023/12/02 12:12:20;;;;;;;16.83;11.88;;;;;;;;;;5072308;28;20271;-60
2023/12/02 12:14:47;;;;;;;15.65;11.32;;;;;;;;;;5071720;28;20220;-60
2023/12/02 12:17:13;;;;;;;14.10;11.30;;;;;;;;;;5071392;28;20281;-60
2023/12/02 12:19:40;;;;;;;15.15;10.60;;;;;;;;;;5071589;28;20211;-60
2023/12/02 12:22:06;;;;;;;12.43;9.90;;;;;;;;;;5071810;28;20686;-59
2023/12/02 12:24:33;;;;;;;10.63;8.82;;;;;;;;;;5071314;28;20208;-60
2023/12/02 12:27:00;;;;;;;10.85;8.93;;;;;;;;;;5071603;28;20296;-60
2023/12/02 12:29:27;;;;;;;12.60;10.25;;;;;;;;;;5071419;28;20204;-60
2023/12/02 12:31:55;;;;;;;12.85;9.65;;;;;;;;;;5071274;28;20197;-60
2023/12/02 12:34:21;;;;;;;11.80;9.65;;;;;;;;;;5071748;28;20277;-59
2023/12/02 12:36:47;;;;;;;9.07;8.02;;;;;;;;;;5071683;28;20304;-60
2023/12/02 12:39:16;;;;;;;11.20;8.63;;;;;;;;;;5071031;28;20200;-59
2023/12/02 12:41:42;;;;;;;10.90;8.43;;;;;;;;;;5071343;28;20227;-60
2023/12/02 12:44:10;;;;;;;10.77;8.32;;;;;;;;;;5071013;28;20656;-61
2023/12/02 12:46:36;;;;;;;11.02;8.35;;;;;;;;;;5072052;28;20220;-61
2023/12/02 12:49:04;;;;;;;10.77;8.20;;;;;;;;;;5071600;28;20595;-59
2023/12/02 12:51:31;;;;;;;10.10;8.05;;;;;;;;;;5071739;28;20296;-59
2023/12/02 12:53:59;;;;;;;8.55;7.65;;;;;;;;;;5071814;28;20200;-59
2023/12/02 12:56:28;;;;;;;9.38;8.07;;;;;;;;;;5071563;28;20315;-59
2023/12/02 12:58:57;;;;;;;7.72;6.93;;;;;;;;;;5073062;28;20223;-59
2023/12/02 13:01:27;;;;;;;8.30;7.07;;;;;;;;;;5075247;28;20310;-59
2023/12/02 13:03:59;;;;;;;8.40;7.00;;;;;;;;;;5075424;28;20208;-59
2023/12/02 13:06:29;;;;;;;8.05;7.15;;;;;;;;;;5074808;28;20224;-59
2023/12/02 13:09:03;;;;;;;10.60;7.18;;;;;;;;;;5075057;28;20200;-59
2023/12/02 13:11:30;;;;;;;10.30;8.15;;;;;;;;;;5075659;28;20201;-59
2023/12/02 13:14:02;;;;;;;8.80;7.90;;;;;;;;;;5075934;28;20262;-59
2023/12/02 13:16:30;;;;;;;9.75;8.52;;;;;;;;;;5075400;28;20311;-59
2023/12/02 13:18:59;;;;;;;9.88;8.43;;;;;;;;;;5074654;28;20208;-59
2023/12/02 13:21:26;;;;;;;9.55;8.25;;;;;;;;;;5074403;28;20649;-59
2023/12/02 13:23:53;;;;;;;10.88;8.20;;;;;;;;;;5074471;28;20678;-59
2023/12/02 13:26:24;;;;;;;9.48;8.48;;;;;;;;;;5074613;28;20266;-59
2023/12/02 13:28:50;;;;;;;9.20;8.27;;;;;;;;;;5088374;22;20722;-59
2023/12/02 13:31:17;;;;;;;11.35;9.63;;;;;;;;;;5063089;28;20637;-59
2023/12/02 13:33:49;;;;;;;9.93;8.55;;;;;;;;;;5063236;28;20209;-59
2023/12/02 13:36:20;;;;;;;9.32;8.38;;;;;;;;;;5063094;28;20232;-59
2023/12/02 13:38:52;;;;;;;10.27;8.93;;;;;;;;;;5063605;28;20633;-59
2023/12/02 13:41:23;;;;;;;10.60;9.50;;;;;;;;;;5051579;28;20266;-59
2023/12/02 13:43:52;;;;;;;10.18;9.05;;;;;;;;;;5059719;28;20204;-59
2023/12/02 13:46:22;;;;;;;12.95;10.25;;;;;;;;;;5051840;28;20213;-59
2023/12/02 13:48:59;;;;;;;13.05;10.20;;;;;;;;;;5059334;28;20201;-59
2023/12/02 13:51:27;;;;;;;10.95;9.85;;;;;;;;;;5052314;28;20201;-59
2023/12/02 13:53:56;;;;;;;11.10;9.80;;;;;;;;;;5059704;28;20211;-61
2023/12/02 13:56:24;;;;;;;16.40;11.95;;;;;;;;;;5059451;28;20224;-60
2023/12/02 13:59:00;;;;;;;15.05;11.00;;;;;;;;;;5059333;28;20363;-58
2023/12/02 14:01:30;;;;;;;12.13;10.50;;;;;;;;;;5052468;28;20503;-59
2023/12/02 14:04:06;;;;;;;10.45;9.38;;;;;;;;;;5060220;28;20362;-58
2023/12/02 14:06:39;;;;;;;11.98;10.57;;;;;;;;;;5063043;28;20216;-57
2023/12/02 14:09:07;;;;;;;11.70;9.70;;;;;;;;;;5060879;28;20200;-57
2023/12/02 14:11:40;;;;;;;12.40;10.30;;;;;;;;;;5059033;28;20278;-58
2023/12/02 14:14:12;;;;;;;12.90;10.27;;;;;;;;;;5060793;28;20424;-57
2023/12/02 14:16:44;;;;;;;12.02;10.35;;;;;;;;;;5063063;28;20265;-58
2023/12/02 14:19:31;;;;;;;10.95;9.20;;;;;;;;;;5060580;28;20281;-58
2023/12/02 14:22:20;;;;;;;10.13;8.45;;;;;;;;;;5059423;28;20583;-59